sensor_id;sensor_type;location;lat;lon;timestamp;temperature;humidity
43991;DHT22;29654;50.784;20.604;2023-07-31T00:03:40;24.30;53.70
43991;DHT22;29654;50.784;20.604;2023-07-31T00:08:44;24.30;53.70
43991;DHT22;29654;50.784;20.604;2023-07-31T00:13:46;24.30;53.70
43991;DHT22;29654;50.784;20.604;2023-07-31T00:18:49;24.20;53.60
43991;DHT22;29654;50.784;20.604;2023-07-31T00:23:53;24.20;53.60
43991;DHT22;29654;50.784;20.604;2023-07-31T00:28:55;24.20;53.70
43991;DHT22;29654;50.784;20.604;2023-07-31T00:33:58;24.10;53.50
43991;DHT22;29654;50.784;20.604;2023-07-31T00:39:02;24.10;53.50
43991;DHT22;29654;50.784;20.604;2023-07-31T00:44:05;24.00;53.50
43991;DHT22;29654;50.784;20.604;2023-07-31T00:49:08;24.00;53.40
43991;DHT22;29654;50.784;20.604;2023-07-31T00:54:14;23.90;53.50
43991;DHT22;29654;50.784;20.604;2023-07-31T00:59:16;23.90;53.60
43991;DHT22;29654;50.784;20.604;2023-07-31T01:04:20;23.90;53.60
43991;DHT22;29654;50.784;20.604;2023-07-31T01:09:29;23.80;53.70
43991;DHT22;29654;50.784;20.604;2023-07-31T01:14:37;23.80;54.20
43991;DHT22;29654;50.784;20.604;2023-07-31T01:19:40;23.70;53.80
43991;DHT22;29654;50.784;20.604;2023-07-31T01:24:55;23.70;53.90
43991;DHT22;29654;50.784;20.604;2023-07-31T01:30:08;23.70;54.50
43991;DHT22;29654;50.784;20.604;2023-07-31T01:35:15;23.70;54.30
43991;DHT22;29654;50.784;20.604;2023-07-31T01:40:18;23.70;54.00
43991;DHT22;29654;50.784;20.604;2023-07-31T01:45:22;23.60;53.90
43991;DHT22;29654;50.784;20.604;2023-07-31T01:50:24;23.60;54.00
43991;DHT22;29654;50.784;20.604;2023-07-31T01:55:27;23.50;53.70
43991;DHT22;29654;50.784;20.604;2023-07-31T02:00:31;23.50;53.70
43991;DHT22;29654;50.784;20.604;2023-07-31T02:05:34;23.50;53.80
43991;DHT22;29654;50.784;20.604;2023-07-31T02:10:37;23.40;53.80
43991;DHT22;29654;50.784;20.604;2023-07-31T02:15:41;23.40;53.90
43991;DHT22;29654;50.784;20.604;2023-07-31T02:20:48;23.30;54.00
43991;DHT22;29654;50.784;20.604;2023-07-31T02:25:51;23.30;54.00
43991;DHT22;29654;50.784;20.604;2023-07-31T02:30:56;23.20;54.20
43991;DHT22;29654;50.784;20.604;2023-07-31T02:35:58;23.20;54.50
43991;DHT22;29654;50.784;20.604;2023-07-31T02:41:01;23.10;54.50
43991;DHT22;29654;50.784;20.604;2023-07-31T02:46:05;23.10;54.70
43991;DHT22;29654;50.784;20.604;2023-07-31T02:51:07;23.20;55.00
43991;DHT22;29654;50.784;20.604;2023-07-31T02:56:10;23.20;55.70
43991;DHT22;29654;50.784;20.604;2023-07-31T03:01:14;23.20;55.10
43991;DHT22;29654;50.784;20.604;2023-07-31T03:06:17;23.20;55.30
43991;DHT22;29654;50.784;20.604;2023-07-31T03:11:20;23.20;55.20
43991;DHT22;29654;50.784;20.604;2023-07-31T03:16:24;23.20;55.20
43991;DHT22;29654;50.784;20.604;2023-07-31T03:21:26;23.20;55.30
43991;DHT22;29654;50.784;20.604;2023-07-31T03:26:31;23.20;55.20
43991;DHT22;29654;50.784;20.604;2023-07-31T03:31:35;23.30;55.40
43991;DHT22;29654;50.784;20.604;2023-07-31T03:36:38;23.30;55.30
43991;DHT22;29654;50.784;20.604;2023-07-31T03:41:41;23.30;55.30
43991;DHT22;29654;50.784;20.604;2023-07-31T03:46:45;23.20;55.30
43991;DHT22;29654;50.784;20.604;2023-07-31T03:51:48;23.30;55.60
43991;DHT22;29654;50.784;20.604;2023-07-31T03:56:50;23.30;56.20
43991;DHT22;29654;50.784;20.604;2023-07-31T04:01:54;23.30;55.70
43991;DHT22;29654;50.784;20.604;2023-07-31T04:06:56;23.30;55.90
43991;DHT22;29654;50.784;20.604;2023-07-31T04:11:59;23.30;55.80
43991;DHT22;29654;50.784;20.604;2023-07-31T04:17:03;23.30;55.80
43991;DHT22;29654;50.784;20.604;2023-07-31T04:22:05;23.40;55.90
43991;DHT22;29654;50.784;20.604;2023-07-31T04:27:08;23.40;55.80
43991;DHT22;29654;50.784;20.604;2023-07-31T04:32:12;23.50;55.80
43991;DHT22;29654;50.784;20.604;2023-07-31T04:37:16;23.50;56.00
43991;DHT22;29654;50.784;20.604;2023-07-31T04:42:19;23.60;55.80
43991;DHT22;29654;50.784;20.604;2023-07-31T04:47:22;23.60;56.00
43991;DHT22;29654;50.784;20.604;2023-07-31T04:52:25;23.70;55.70
43991;DHT22;29654;50.784;20.604;2023-07-31T04:57:28;23.70;55.80
43991;DHT22;29654;50.784;20.604;2023-07-31T05:02:31;23.70;55.90
43991;DHT22;29654;50.784;20.604;2023-07-31T05:07:34;23.80;56.40
43991;DHT22;29654;50.784;20.604;2023-07-31T05:12:37;24.00;56.70
43991;DHT22;29654;50.784;20.604;2023-07-31T05:17:41;24.20;56.40
43991;DHT22;29654;50.784;20.604;2023-07-31T05:22:44;24.30;56.50
43991;DHT22;29654;50.784;20.604;2023-07-31T05:27:46;24.40;55.50
43991;DHT22;29654;50.784;20.604;2023-07-31T05:32:50;24.50;55.70
43991;DHT22;29654;50.784;20.604;2023-07-31T05:37:53;24.70;56.00
43991;DHT22;29654;50.784;20.604;2023-07-31T05:42:55;24.90;56.20
43991;DHT22;29654;50.784;20.604;2023-07-31T05:47:59;25.10;55.70
43991;DHT22;29654;50.784;20.604;2023-07-31T05:53:02;25.40;55.00
43991;DHT22;29654;50.784;20.604;2023-07-31T05:58:04;25.50;54.40
43991;DHT22;29654;50.784;20.604;2023-07-31T06:03:08;25.50;54.10
43991;DHT22;29654;50.784;20.604;2023-07-31T06:08:11;25.50;54.20
43991;DHT22;29654;50.784;20.604;2023-07-31T06:13:13;25.60;54.30
43991;DHT22;29654;50.784;20.604;2023-07-31T06:18:17;25.60;54.20
43991;DHT22;29654;50.784;20.604;2023-07-31T06:23:20;25.80;54.10
43991;DHT22;29654;50.784;20.604;2023-07-31T06:28:27;25.80;53.90
43991;DHT22;29654;50.784;20.604;2023-07-31T06:33:32;26.00;53.80
43991;DHT22;29654;50.784;20.604;2023-07-31T06:38:34;26.20;53.90
43991;DHT22;29654;50.784;20.604;2023-07-31T06:43:38;26.40;53.80
43991;DHT22;29654;50.784;20.604;2023-07-31T06:48:42;26.60;53.30
43991;DHT22;29654;50.784;20.604;2023-07-31T06:53:45;26.70;52.90
43991;DHT22;29654;50.784;20.604;2023-07-31T06:58:47;26.90;52.50
43991;DHT22;29654;50.784;20.604;2023-07-31T07:03:51;26.90;52.10
43991;DHT22;29654;50.784;20.604;2023-07-31T07:08:54;27.00;51.90
43991;DHT22;29654;50.784;20.604;2023-07-31T07:13:56;27.00;51.70
43991;DHT22;29654;50.784;20.604;2023-07-31T07:19:00;27.00;51.60
43991;DHT22;29654;50.784;20.604;2023-07-31T07:24:04;27.20;51.80
43991;DHT22;29654;50.784;20.604;2023-07-31T07:29:06;27.30;51.80
43991;DHT22;29654;50.784;20.604;2023-07-31T07:34:10;27.50;51.70
43991;DHT22;29654;50.784;20.604;2023-07-31T07:39:13;27.70;51.10
43991;DHT22;29654;50.784;20.604;2023-07-31T07:44:16;27.80;50.80
43991;DHT22;29654;50.784;20.604;2023-07-31T07:49:20;27.80;50.60
43991;DHT22;29654;50.784;20.604;2023-07-31T07:54:23;27.90;50.60
43991;DHT22;29654;50.784;20.604;2023-07-31T07:59:25;28.00;50.60
43991;DHT22;29654;50.784;20.604;2023-07-31T08:04:30;28.20;50.70
43991;DHT22;29654;50.784;20.604;2023-07-31T08:09:32;28.40;50.00
43991;DHT22;29654;50.784;20.604;2023-07-31T08:14:35;28.50;49.90
43991;DHT22;29654;50.784;20.604;2023-07-31T08:19:39;28.60;49.70
43991;DHT22;29654;50.784;20.604;2023-07-31T08:24:41;28.80;49.60
43991;DHT22;29654;50.784;20.604;2023-07-31T08:29:44;29.00;49.40
43991;DHT22;29654;50.784;20.604;2023-07-31T08:34:48;29.20;49.00
43991;DHT22;29654;50.784;20.604;2023-07-31T08:39:51;29.40;48.70
43991;DHT22;29654;50.784;20.604;2023-07-31T08:44:55;29.50;48.40
43991;DHT22;29654;50.784;20.604;2023-07-31T08:50:00;29.70;48.60
43991;DHT22;29654;50.784;20.604;2023-07-31T08:55:05;29.90;47.90
43991;DHT22;29654;50.784;20.604;2023-07-31T09:00:10;30.00;47.20
43991;DHT22;29654;50.784;20.604;2023-07-31T09:05:15;30.10;46.30
43991;DHT22;29654;50.784;20.604;2023-07-31T09:10:19;30.00;45.50
43991;DHT22;29654;50.784;20.604;2023-07-31T09:15:22;29.90;45.50
43991;DHT22;29654;50.784;20.604;2023-07-31T09:20:27;29.80;45.70
43991;DHT22;29654;50.784;20.604;2023-07-31T09:25:29;29.70;45.20
43991;DHT22;29654;50.784;20.604;2023-07-31T09:30:44;29.60;45.60
43991;DHT22;29654;50.784;20.604;2023-07-31T09:35:50;29.70;44.60
43991;DHT22;29654;50.784;20.604;2023-07-31T09:40:52;29.80;45.70
43991;DHT22;29654;50.784;20.604;2023-07-31T09:45:56;29.90;45.20
43991;DHT22;29654;50.784;20.604;2023-07-31T09:51:04;29.90;44.40
43991;DHT22;29654;50.784;20.604;2023-07-31T09:56:07;29.90;43.80
43991;DHT22;29654;50.784;20.604;2023-07-31T10:01:09;30.00;44.00
43991;DHT22;29654;50.784;20.604;2023-07-31T10:06:14;30.00;43.80
43991;DHT22;29654;50.784;20.604;2023-07-31T10:11:21;30.00;43.70
43991;DHT22;29654;50.784;20.604;2023-07-31T10:16:24;30.10;43.10
43991;DHT22;29654;50.784;20.604;2023-07-31T10:21:28;30.10;43.40
43991;DHT22;29654;50.784;20.604;2023-07-31T10:26:32;30.20;43.30
43991;DHT22;29654;50.784;20.604;2023-07-31T10:31:35;30.30;43.00
43991;DHT22;29654;50.784;20.604;2023-07-31T10:36:39;30.40;43.50
43991;DHT22;29654;50.784;20.604;2023-07-31T10:41:42;30.50;42.70
43991;DHT22;29654;50.784;20.604;2023-07-31T10:46:45;30.60;42.80
43991;DHT22;29654;50.784;20.604;2023-07-31T10:51:49;30.70;41.90
43991;DHT22;29654;50.784;20.604;2023-07-31T10:56:52;30.80;41.40
43991;DHT22;29654;50.784;20.604;2023-07-31T11:01:55;30.70;40.70
43991;DHT22;29654;50.784;20.604;2023-07-31T11:07:01;30.60;40.70
43991;DHT22;29654;50.784;20.604;2023-07-31T11:12:07;30.50;40.50
43991;DHT22;29654;50.784;20.604;2023-07-31T11:17:10;30.50;40.60
43991;DHT22;29654;50.784;20.604;2023-07-31T11:22:14;30.50;40.70
43991;DHT22;29654;50.784;20.604;2023-07-31T11:27:17;30.50;40.00
43991;DHT22;29654;50.784;20.604;2023-07-31T11:32:19;30.50;40.00
43991;DHT22;29654;50.784;20.604;2023-07-31T11:37:25;30.40;40.20
43991;DHT22;29654;50.784;20.604;2023-07-31T11:42:41;30.50;40.00
43991;DHT22;29654;50.784;20.604;2023-07-31T11:47:44;30.70;40.10
43991;DHT22;29654;50.784;20.604;2023-07-31T11:52:49;30.80;39.50
43991;DHT22;29654;50.784;20.604;2023-07-31T11:57:56;30.80;38.90
43991;DHT22;29654;50.784;20.604;2023-07-31T12:02:59;30.80;38.40
43991;DHT22;29654;50.784;20.604;2023-07-31T12:08:09;30.80;38.70
43991;DHT22;29654;50.784;20.604;2023-07-31T12:13:20;30.70;37.60
43991;DHT22;29654;50.784;20.604;2023-07-31T12:18:25;30.70;38.20
43991;DHT22;29654;50.784;20.604;2023-07-31T12:23:31;30.60;38.60
43991;DHT22;29654;50.784;20.604;2023-07-31T12:28:37;30.60;38.00
43991;DHT22;29654;50.784;20.604;2023-07-31T12:33:43;30.70;37.70
43991;DHT22;29654;50.784;20.604;2023-07-31T12:38:47;30.70;38.10
43991;DHT22;29654;50.784;20.604;2023-07-31T12:43:50;30.80;37.50
43991;DHT22;29654;50.784;20.604;2023-07-31T12:48:52;30.90;38.10
43991;DHT22;29654;50.784;20.604;2023-07-31T12:53:56;31.10;38.10
43991;DHT22;29654;50.784;20.604;2023-07-31T12:58:59;31.20;37.70
43991;DHT22;29654;50.784;20.604;2023-07-31T13:04:01;31.40;37.90
43991;DHT22;29654;50.784;20.604;2023-07-31T13:09:05;31.50;38.00
43991;DHT22;29654;50.784;20.604;2023-07-31T13:14:08;31.60;37.60
43991;DHT22;29654;50.784;20.604;2023-07-31T13:19:11;31.80;37.40
43991;DHT22;29654;50.784;20.604;2023-07-31T13:24:15;31.90;36.80
43991;DHT22;29654;50.784;20.604;2023-07-31T13:29:18;31.90;36.80
43991;DHT22;29654;50.784;20.604;2023-07-31T13:34:21;31.90;36.60
43991;DHT22;29654;50.784;20.604;2023-07-31T13:39:25;31.90;36.80
43991;DHT22;29654;50.784;20.604;2023-07-31T13:44:27;31.90;37.00
43991;DHT22;29654;50.784;20.604;2023-07-31T13:49:30;31.90;37.00
43991;DHT22;29654;50.784;20.604;2023-07-31T13:54:34;31.90;36.70
43991;DHT22;29654;50.784;20.604;2023-07-31T13:59:37;32.00;36.40
43991;DHT22;29654;50.784;20.604;2023-07-31T14:04:39;32.00;36.70
43991;DHT22;29654;50.784;20.604;2023-07-31T14:09:43;32.10;36.80
43991;DHT22;29654;50.784;20.604;2023-07-31T14:14:46;32.20;36.20
43991;DHT22;29654;50.784;20.604;2023-07-31T14:19:49;32.10;35.80
43991;DHT22;29654;50.784;20.604;2023-07-31T14:24:52;32.10;35.00
43991;DHT22;29654;50.784;20.604;2023-07-31T14:29:55;31.90;35.10
43991;DHT22;29654;50.784;20.604;2023-07-31T14:34:58;31.70;35.10
43991;DHT22;29654;50.784;20.604;2023-07-31T14:40:02;31.60;35.50
43991;DHT22;29654;50.784;20.604;2023-07-31T14:45:06;31.60;35.60
43991;DHT22;29654;50.784;20.604;2023-07-31T14:50:11;31.60;35.70
43991;DHT22;29654;50.784;20.604;2023-07-31T14:55:15;31.60;35.70
43991;DHT22;29654;50.784;20.604;2023-07-31T15:00:17;31.60;36.00
43991;DHT22;29654;50.784;20.604;2023-07-31T15:05:20;31.60;35.90
43991;DHT22;29654;50.784;20.604;2023-07-31T15:10:24;31.80;35.80
43991;DHT22;29654;50.784;20.604;2023-07-31T15:15:27;31.90;35.50
43991;DHT22;29654;50.784;20.604;2023-07-31T15:20:30;31.90;35.30
43991;DHT22;29654;50.784;20.604;2023-07-31T15:25:34;32.00;35.20
43991;DHT22;29654;50.784;20.604;2023-07-31T15:30:37;31.90;35.00
43991;DHT22;29654;50.784;20.604;2023-07-31T15:35:40;31.90;35.00
43991;DHT22;29654;50.784;20.604;2023-07-31T15:40:45;31.90;35.20
43991;DHT22;29654;50.784;20.604;2023-07-31T15:45:47;31.80;35.00
43991;DHT22;29654;50.784;20.604;2023-07-31T15:50:50;31.70;35.00
43991;DHT22;29654;50.784;20.604;2023-07-31T15:55:54;31.70;35.00
43991;DHT22;29654;50.784;20.604;2023-07-31T16:00:56;31.60;35.00
43991;DHT22;29654;50.784;20.604;2023-07-31T16:06:00;31.50;35.20
43991;DHT22;29654;50.784;20.604;2023-07-31T16:11:04;31.50;35.50
43991;DHT22;29654;50.784;20.604;2023-07-31T16:16:06;31.50;35.30
43991;DHT22;29654;50.784;20.604;2023-07-31T16:21:09;31.40;35.50
43991;DHT22;29654;50.784;20.604;2023-07-31T16:26:13;31.40;35.60
43991;DHT22;29654;50.784;20.604;2023-07-31T16:31:15;31.40;35.50
43991;DHT22;29654;50.784;20.604;2023-07-31T16:36:18;31.30;35.60
43991;DHT22;29654;50.784;20.604;2023-07-31T16:41:24;31.30;35.70
43991;DHT22;29654;50.784;20.604;2023-07-31T16:46:26;31.30;35.80
43991;DHT22;29654;50.784;20.604;2023-07-31T16:51:31;31.20;35.80
43991;DHT22;29654;50.784;20.604;2023-07-31T16:56:35;31.20;35.90
43991;DHT22;29654;50.784;20.604;2023-07-31T17:01:37;31.10;35.80
43991;DHT22;29654;50.784;20.604;2023-07-31T17:06:40;31.10;36.00
43991;DHT22;29654;50.784;20.604;2023-07-31T17:11:44;31.10;36.10
43991;DHT22;29654;50.784;20.604;2023-07-31T17:16:46;31.00;36.00
43991;DHT22;29654;50.784;20.604;2023-07-31T17:21:49;31.00;36.10
43991;DHT22;29654;50.784;20.604;2023-07-31T17:26:53;31.00;36.20
43991;DHT22;29654;50.784;20.604;2023-07-31T17:31:55;30.90;36.40
43991;DHT22;29654;50.784;20.604;2023-07-31T17:36:58;30.90;36.30
43991;DHT22;29654;50.784;20.604;2023-07-31T17:42:02;30.80;36.70
43991;DHT22;29654;50.784;20.604;2023-07-31T17:47:05;30.80;36.50
43991;DHT22;29654;50.784;20.604;2023-07-31T17:52:08;30.70;36.60
43991;DHT22;29654;50.784;20.604;2023-07-31T17:57:12;30.60;36.90
43991;DHT22;29654;50.784;20.604;2023-07-31T18:02:14;30.40;37.20
43991;DHT22;29654;50.784;20.604;2023-07-31T18:07:17;30.20;37.60
43991;DHT22;29654;50.784;20.604;2023-07-31T18:12:21;30.00;38.10
43991;DHT22;29654;50.784;20.604;2023-07-31T18:17:23;29.80;38.30
43991;DHT22;29654;50.784;20.604;2023-07-31T18:22:26;29.60;38.80
43991;DHT22;29654;50.784;20.604;2023-07-31T18:27:30;29.30;39.10
43991;DHT22;29654;50.784;20.604;2023-07-31T18:32:33;29.00;39.50
43991;DHT22;29654;50.784;20.604;2023-07-31T18:37:35;28.70;39.70
43991;DHT22;29654;50.784;20.604;2023-07-31T18:42:39;28.50;40.00
43991;DHT22;29654;50.784;20.604;2023-07-31T18:47:42;28.20;40.30
43991;DHT22;29654;50.784;20.604;2023-07-31T18:52:45;27.90;40.30
43991;DHT22;29654;50.784;20.604;2023-07-31T18:57:49;27.70;40.70
43991;DHT22;29654;50.784;20.604;2023-07-31T19:02:51;27.50;41.30
43991;DHT22;29654;50.784;20.604;2023-07-31T19:07:54;27.30;41.40
43991;DHT22;29654;50.784;20.604;2023-07-31T19:13:01;27.10;41.70
43991;DHT22;29654;50.784;20.604;2023-07-31T19:18:06;26.90;42.00
43991;DHT22;29654;50.784;20.604;2023-07-31T19:23:08;26.70;42.80
43991;DHT22;29654;50.784;20.604;2023-07-31T19:28:12;26.60;42.40
43991;DHT22;29654;50.784;20.604;2023-07-31T19:33:15;26.40;42.80
43991;DHT22;29654;50.784;20.604;2023-07-31T19:38:18;26.20;42.80
43991;DHT22;29654;50.784;20.604;2023-07-31T19:43:22;26.10;43.00
43991;DHT22;29654;50.784;20.604;2023-07-31T19:48:25;25.90;43.30
43991;DHT22;29654;50.784;20.604;2023-07-31T19:53:28;25.80;43.40
43991;DHT22;29654;50.784;20.604;2023-07-31T19:58:32;25.70;43.60
43991;DHT22;29654;50.784;20.604;2023-07-31T20:03:35;25.60;44.60
43991;DHT22;29654;50.784;20.604;2023-07-31T20:08:38;25.40;43.80
43991;DHT22;29654;50.784;20.604;2023-07-31T20:13:41;25.40;44.10
43991;DHT22;29654;50.784;20.604;2023-07-31T20:18:44;25.30;44.40
43991;DHT22;29654;50.784;20.604;2023-07-31T20:23:47;25.20;44.40
43991;DHT22;29654;50.784;20.604;2023-07-31T20:28:51;25.10;44.50
43991;DHT22;29654;50.784;20.604;2023-07-31T20:33:53;25.00;45.00
43991;DHT22;29654;50.784;20.604;2023-07-31T20:38:56;24.90;45.00
43991;DHT22;29654;50.784;20.604;2023-07-31T20:44:00;24.90;45.00
43991;DHT22;29654;50.784;20.604;2023-07-31T20:49:03;24.80;45.30
43991;DHT22;29654;50.784;20.604;2023-07-31T20:54:05;24.70;45.30
43991;DHT22;29654;50.784;20.604;2023-07-31T20:59:09;24.70;45.50
43991;DHT22;29654;50.784;20.604;2023-07-31T21:04:12;24.60;45.70
43991;DHT22;29654;50.784;20.604;2023-07-31T21:09:15;24.50;45.70
43991;DHT22;29654;50.784;20.604;2023-07-31T21:14:19;24.40;45.90
43991;DHT22;29654;50.784;20.604;2023-07-31T21:19:21;24.30;46.20
43991;DHT22;29654;50.784;20.604;2023-07-31T21:24:24;24.20;46.10
43991;DHT22;29654;50.784;20.604;2023-07-31T21:29:28;24.10;46.30
43991;DHT22;29654;50.784;20.604;2023-07-31T21:34:30;24.10;46.60
43991;DHT22;29654;50.784;20.604;2023-07-31T21:39:33;24.00;46.60
43991;DHT22;29654;50.784;20.604;2023-07-31T21:44:37;23.90;46.70
43991;DHT22;29654;50.784;20.604;2023-07-31T21:49:40;23.80;47.00
43991;DHT22;29654;50.784;20.604;2023-07-31T21:54:42;23.70;46.90
43991;DHT22;29654;50.784;20.604;2023-07-31T21:59:47;23.70;47.90
43991;DHT22;29654;50.784;20.604;2023-07-31T22:04:50;23.60;47.50
43991;DHT22;29654;50.784;20.604;2023-07-31T22:09:52;23.50;47.40
43991;DHT22;29654;50.784;20.604;2023-07-31T22:14:56;23.40;47.40
43991;DHT22;29654;50.784;20.604;2023-07-31T22:19:59;23.40;47.60
43991;DHT22;29654;50.784;20.604;2023-07-31T22:25:01;23.30;47.60
43991;DHT22;29654;50.784;20.604;2023-07-31T22:30:06;23.20;47.70
43991;DHT22;29654;50.784;20.604;2023-07-31T22:35:09;23.10;48.10
43991;DHT22;29654;50.784;20.604;2023-07-31T22:40:12;23.00;48.00
43991;DHT22;29654;50.784;20.604;2023-07-31T22:45:17;22.90;48.10
43991;DHT22;29654;50.784;20.604;2023-07-31T22:50:20;22.90;48.40
43991;DHT22;29654;50.784;20.604;2023-07-31T22:55:23;22.80;48.40
43991;DHT22;29654;50.784;20.604;2023-07-31T23:00:26;22.70;48.50
43991;DHT22;29654;50.784;20.604;2023-07-31T23:05:29;22.70;48.70
43991;DHT22;29654;50.784;20.604;2023-07-31T23:10:33;22.60;48.60
43991;DHT22;29654;50.784;20.604;2023-07-31T23:15:38;22.60;48.80
43991;DHT22;29654;50.784;20.604;2023-07-31T23:20:41;22.50;48.80
43991;DHT22;29654;50.784;20.604;2023-07-31T23:25:50;22.40;48.80
43991;DHT22;29654;50.784;20.604;2023-07-31T23:31:01;22.40;48.90
43991;DHT22;29654;50.784;20.604;2023-07-31T23:36:08;22.30;49.50
43991;DHT22;29654;50.784;20.604;2023-07-31T23:41:12;22.30;49.40
43991;DHT22;29654;50.784;20.604;2023-07-31T23:46:16;22.20;49.10
43991;DHT22;29654;50.784;20.604;2023-07-31T23:51:18;22.20;49.30
43991;DHT22;29654;50.784;20.604;2023-07-31T23:56:21;22.10;49.20
